Terminal Aerodrome Forecast
Issued by NWS

Home | Current Version | Previous Version | Text Only | Print | Product List | Glossary On
Versions: 1 2 3 4 5 6 7 8 9 10 11 12 13 14 15 16 17 18 19 20
012
FTUS44 KMAF 271129
TAFHOB
TAF
KHOB 271129Z 2712/2812 28010KT P6SM SKC
     FM271600 24013G23KT P6SM SKC
     FM280200 26006KT P6SM SKC=

USA.gov is the U.S. government's official web portal to all federal, state and local government web resources and services.